METAR (acronimo di METeorological Air Report) è un messaggio meteo emesso nella maggior parte dei casi in ambito aeroportuale

UEEE - Yakutsk, Russia
Ultimo Aggiornamento: Venerdì 18 Ottobre 2019 15:30 CEST
Bruma, Nuvoloso
Bruma, Nuvoloso
 Wind from Est
Vento: Est 4 km/h
Temperatura: -1°C
Punto di Rugiada: -1°C
Umidità: 100%
Barometro: 1012 hPa
Condizioni: Bruma
Nuvole: Nuvoloso
Visibilità: 1 km
Nuvole nel Dettaglio: Nuvoloso 122 m
2019/10/18 13:30 UEEE 181330Z 10001MPS 1300 R23L/P2000N BR OVC004 M01/M01 Q1012 R23L/15//48 NOSIG RMK QBB120 QFE750
UHWW - Vladivostok, Russia
Ultimo Aggiornamento: Venerdì 18 Ottobre 2019 15:30 CEST
Prevalentemente Nuvoloso
Prevalentemente Nuvoloso
 Wind from calm
Vento: Calma
Temperatura: 6°C
Punto di Rugiada: 2°C
Umidità: 76%
Barometro: 1026 hPa
Nuvole: Prevalentemente Nuvoloso
Visibilità: 10 km
Nuvole nel Dettaglio: Prevalentemente Nuvoloso 1097 m
2019/10/18 13:30 UHWW 181330Z 00000MPS 9999 BKN036 06/02 Q1026 R25L/0///70 NOSIG RMK QFE768
ZMUB - Ulan Bator, Mongolia
Ultimo Aggiornamento: Venerdì 18 Ottobre 2019 16:00 CEST
Sereno
Sereno
 Wind from varies
Vento: variabile 4 km/h
Temperatura: 7°C
Punto di Rugiada: -11°C
Umidità: 27%
Barometro: 1011 hPa
Condizioni: Sereno
Visibilità: superiore a 10 km
2019/10/18 14:00 ZMUB 181400Z VRB01MPS CAVOK 07/M11 Q1011 NOSIG RMK QFE651.6 26
 
UTTT - Tashkent, Uzbekistan
Ultimo Aggiornamento: Venerdì 18 Ottobre 2019 15:30 CEST
Sereno
Sereno
 Wind from Nord
Vento: Nord 11 km/h
Temperatura: 19°C
Punto di Rugiada: 2°C
Umidità: 32%
Barometro: 1023 hPa
Condizioni: Sereno
Visibilità: superiore a 10 km
2019/10/18 13:30 UTTT 181330Z 35006KT 310V030 CAVOK 19/02 Q1023 R08R/CLRD70 NOSIG
OAKB - Kabul, Afghanistan
Ultimo Aggiornamento: Venerdì 18 Ottobre 2019 15:50 CEST

 Wind from Est
Vento: Est 19 km/h
Visibilità: 10 km
2019/10/18 13:50 OAKB 181350Z 10010KT 9999 CAVOK 12/03 Q1025 NOSIG RMK A3026 BLU BLU
OPIS - Islamabad, Pakistan
Ultimo Aggiornamento: Venerdì 18 Ottobre 2019 14:55 CEST
Qualche Nuvola
Qualche Nuvola
 Wind from Nord-Ovest
Vento: Nord-Ovest 15 km/h
Temperatura: 22°C
Punto di Rugiada: 15°C
Umidità: 65%
Barometro: 1017 hPa
Nuvole: Qualche Nuvola
Visibilità: 7 km
Nuvole nel Dettaglio: Qualche Nuvola 1219 m
2019/10/18 12:55 OPIS 181255Z 31008KT 7000 FEW040 22/15 Q1017 RH66
 
ZBAA - Pechino, Cina
Ultimo Aggiornamento: Venerdì 18 Ottobre 2019 15:30 CEST
Bruma, Parzialmente Nuvoloso
Bruma, Parzialmente Nuvoloso
 Wind from Est
Vento: Est 4 km/h
Temperatura: 9°C
Punto di Rugiada: 8°C
Umidità: 94%
Barometro: 1022 hPa
Condizioni: Bruma
Nuvole: Parzialmente Nuvoloso
Visibilità: 5 km
2019/10/18 13:30 ZBAA 181330Z 08001MPS 5000 BR NSC 09/08 Q1022 NOSIG
VHHH - Pechino, Cina
Ultimo Aggiornamento: Venerdì 18 Ottobre 2019 15:30 CEST
Sereno
Sereno
 Wind from Sud-Est
Vento: Sud-Est 9 km/h
Temperatura: 26°C
Punto di Rugiada: 18°C
Umidità: 61%
Barometro: 1017 hPa
Condizioni: Sereno
Visibilità: superiore a 10 km
2019/10/18 13:30 VHHH 181330Z 14005KT 090V230 CAVOK 26/18 Q1017 NOSIG
RKSI - Seul-Incheon, Corea del Sud
Ultimo Aggiornamento: Venerdì 18 Ottobre 2019 15:30 CEST
Sereno
Sereno
 Wind from Nord-Est
Vento: Nord-Est 7 km/h
Temperatura: 18°C
Punto di Rugiada: 11°C
Umidità: 64%
Barometro: 1020 hPa
Condizioni: Sereno
Visibilità: superiore a 10 km
2019/10/18 13:30 RKSI 181330Z 05004KT CAVOK 18/11 Q1020 NOSIG
 
RJTT - Tokyo-Haneda, Japan
Ultimo Aggiornamento: Venerdì 18 Ottobre 2019 15:30 CEST
Pioggia Leggera, Acquazzoni, Prevalentemente Nuvoloso
Pioggia Leggera, Acquazzoni, Prevalentemente Nuvoloso
 Wind from Nord
Vento: Nord 22 km/h
Temperatura: 16°C
Punto di Rugiada: 15°C
Umidità: 94%
Barometro: 1024 hPa
Condizioni: Pioggia Leggera, Acquazzoni
Nuvole: Prevalentemente Nuvoloso
Visibilità: 10 km
Nuvole nel Dettaglio: Qualche Nuvola 152 m
Prevalentemente Nuvoloso 305 m
Prevalentemente Nuvoloso 457 m
2019/10/18 13:30 RJTT 181330Z 35012KT 9999 -SHRA FEW005 BKN010 BKN015 16/15 Q1024 NOSIG RMK 1ST005 5CU010 7SC015 A3026
OIII - Tehran, Iran
Ultimo Aggiornamento: Venerdì 18 Ottobre 2019 15:30 CEST
Parzialmente Nuvoloso
Parzialmente Nuvoloso
 Wind from Sud
Vento: Sud 11 km/h
Temperatura: 24°C
Punto di Rugiada: -6°C
Umidità: 13%
Barometro: 1020 hPa
Nuvole: Parzialmente Nuvoloso
Visibilità: 10 km
Nuvole nel Dettaglio: Qualche Nuvola 1067 m
Parzialmente Nuvoloso 2743 m
2019/10/18 13:30 OIII 181330Z 18006KT 9999 FEW035 SCT090 24/M06 Q1020 A3013
ORBI - Baghdad, Iraq
Ultimo Aggiornamento: Venerdì 18 Ottobre 2019 15:00 CEST
Sereno
Sereno
 Wind from Ovest
Vento: Ovest 11 km/h
Temperatura: 36°C
Punto di Rugiada: 11°C
Umidità: 22%
Barometro: 1012 hPa
Condizioni: Sereno
Visibilità: superiore a 10 km
2019/10/18 13:00 ORBI 181300Z 27006KT 220V310 CAVOK 36/11 Q1012 NOSIG
 
OKBK - Kuwait City, Kuwait
Ultimo Aggiornamento: Venerdì 18 Ottobre 2019 14:59 CEST
Sereno
Sereno
 Wind from Nord-Nord-Est
Vento: Nord-Nord-Est 22 km/h
Temperatura: 38°C
Punto di Rugiada: 9°C
Umidità: 17%
Barometro: 1012 hPa
Condizioni: Sereno
Visibilità: superiore a 10 km
2019/10/18 12:59 OKBK 181259Z 02012KT CAVOK 38/09 Q1012 NOSIG
OMDB - Dubai, United Arab Emirates
Ultimo Aggiornamento: Venerdì 18 Ottobre 2019 15:00 CEST
Parzialmente Nuvoloso
Parzialmente Nuvoloso
 Wind from Nord-Nord-Ovest
Vento: Nord-Nord-Ovest 26 km/h
Temperatura: 33°C
Heat Index: 38°C
Punto di Rugiada: 23°C
Umidità: 56%
Barometro: 1010 hPa
Nuvole: Parzialmente Nuvoloso
Visibilità: 7 km
2019/10/18 13:00 OMDB 181300Z 33014KT 7000 NSC 33/23 Q1010 NOSIG
VIDP - New Delhi, India
Ultimo Aggiornamento: Venerdì 18 Ottobre 2019 15:30 CEST
Temporale, Prevalentemente Nuvoloso
Temporale, Prevalentemente Nuvoloso
 Wind from Nord-Ovest
Vento: Nord-Ovest 37 km/h, Raffica: 56 km/h
Temperatura: 25°C
Punto di Rugiada: 16°C
Umidità: 57%
Barometro: 1014 hPa
Condizioni: Temporale
Nuvole: Prevalentemente Nuvoloso
Visibilità: 2 km
Nuvole nel Dettaglio: Parzialmente Nuvoloso 914 m
Qualche Nuvola 1067 m
Prevalentemente Nuvoloso 3048 m
2019/10/18 13:30 VIDP 181330Z 31020G30KT 1800 R28/P2000 R29/P2000 TS SCT030 FEW035CB BKN100 25/16 Q1014 TEMPO 29025G35KT 1500 TSRA
 
VVNB - Hanoi, Vietnam
Ultimo Aggiornamento: Venerdì 18 Ottobre 2019 15:30 CEST
Sereno
Sereno
 Wind from varies
Vento: variabile 4 km/h
Temperatura: 23°C
Punto di Rugiada: 20°C
Umidità: 83%
Barometro: 1018 hPa
Condizioni: Sereno
Visibilità: superiore a 10 km
2019/10/18 13:30 VVNB 181330Z VRB02KT CAVOK 23/20 Q1018 NOSIG
VVTS - Ho Chi Minh City, Vietnam
Ultimo Aggiornamento: Venerdì 18 Ottobre 2019 15:30 CEST
Parzialmente Nuvoloso
Parzialmente Nuvoloso
 Wind from Nord
Vento: Nord 11 km/h
Temperatura: 26°C
Punto di Rugiada: 25°C
Umidità: 94%
Barometro: 1011 hPa
Nuvole: Parzialmente Nuvoloso
Visibilità: 10 km
Nuvole nel Dettaglio: Parzialmente Nuvoloso 518 m
Parzialmente Nuvoloso 1524 m
2019/10/18 13:30 VVTS 181330Z 35006KT 9999 SCT017 SCT050 26/25 Q1011 NOSIG
RPLL - Manila, Philippines
Ultimo Aggiornamento: Venerdì 18 Ottobre 2019 15:00 CEST
Qualche Nuvola
Qualche Nuvola
 Wind from Est-Sud-Est
Vento: Est-Sud-Est 13 km/h
Temperatura: 29°C
Heat Index: 33°C
Punto di Rugiada: 24°C
Umidità: 74%
Barometro: 1011 hPa
Nuvole: Qualche Nuvola
Visibilità: 10 km
Nuvole nel Dettaglio: Qualche Nuvola 762 m
2019/10/18 13:00 RPLL 181300Z 12007KT 080V160 9999 FEW025 29/24 Q1011 NOSIG RMK A2985
 
WMKK - Kuala Lumpur, Malaysia
Ultimo Aggiornamento: Venerdì 18 Ottobre 2019 15:30 CEST
Qualche Nuvola
Qualche Nuvola
 Wind from Nord
Vento: Nord 7 km/h
Temperatura: 26°C
Punto di Rugiada: 24°C
Umidità: 89%
Barometro: 1010 hPa
Nuvole: Qualche Nuvola
Visibilità: 10 km
Nuvole nel Dettaglio: Qualche Nuvola 914 m
2019/10/18 13:30 WMKK 181330Z 01004KT 320V040 9999 FEW030 26/24 Q1010 NOSIG
WSSS - Singapore, Singapore
Ultimo Aggiornamento: Venerdì 18 Ottobre 2019 15:30 CEST
Prevalentemente Nuvoloso
Prevalentemente Nuvoloso
 Wind from Sud-Est
Vento: Sud-Est 7 km/h
Temperatura: 29°C
Heat Index: 33°C
Punto di Rugiada: 24°C
Umidità: 74%
Barometro: 1011 hPa
Nuvole: Prevalentemente Nuvoloso
Visibilità: 10 km
Nuvole nel Dettaglio: Qualche Nuvola 549 m
Parzialmente Nuvoloso 4877 m
Prevalentemente Nuvoloso 9144 m
2019/10/18 13:30 WSSS 181330Z 13004KT 070V160 9999 FEW018 SCT160 BKN300 29/24 Q1011 NOSIG
WBSB - Brunei, Brunei
Ultimo Aggiornamento: Venerdì 18 Ottobre 2019 15:30 CEST
Temporale Leggero, Pioggia, Prevalentemente Nuvoloso
Temporale Leggero, Pioggia, Prevalentemente Nuvoloso
 Wind from Sud-Est
Vento: Sud-Est 6 km/h
Temperatura: 27°C
Heat Index: 32°C
Punto di Rugiada: 26°C
Umidità: 94%
Barometro: 1011 hPa
Condizioni: Temporale Leggero, Pioggia
Nuvole: Prevalentemente Nuvoloso
Visibilità: 10 km
Nuvole nel Dettaglio: Qualche Nuvola 122 m
Parzialmente Nuvoloso 427 m
Qualche Nuvola 457 m
Prevalentemente Nuvoloso 4267 m
2019/10/18 13:30 WBSB 181330Z 14003KT 9999 -TSRA FEW004 SCT014 FEW015CB BKN140 27/26 Q1011 NOSIG